Time;durP1;ratioP1;P1;durP2;ratioP2;P2;SDS_P1;SDS_P2;PMS_P1;PMS_P2;Temp;Humidity;BMP_temperature;BMP_pressure;BME280_temperature;BME280_humidity;BME280_pressure;Samples;Min_cycle;Max_cycle;Signal;HPM_P1;HPM_P2
2021/09/25 00:01:45;;;;;;;7.80;5.47;;;;;;;15.81;76.94;100381.70;1711302;83;21725;-86
2021/09/25 00:04:12;;;;;;;9.03;6.28;;;;;;;15.84;76.89;100376.82;1725840;83;20988;-86
2021/09/25 00:06:39;;;;;;;12.35;5.80;;;;;;;15.85;76.88;100374.17;1726144;83;21064;-85
2021/09/25 00:09:07;;;;;;;9.68;6.30;;;;;;;15.86;76.82;100367.98;1725341;83;21061;-85
2021/09/25 00:11:34;;;;;;;10.00;5.72;;;;;;;15.88;76.82;100366.20;1725751;83;21057;-85
2021/09/25 00:14:01;;;;;;;11.33;7.28;;;;;;;15.89;76.83;100375.05;1725890;83;22375;-84
2021/09/25 00:16:28;;;;;;;8.33;6.20;;;;;;;15.89;76.81;100371.94;1725855;81;21052;-84
2021/09/25 00:18:58;;;;;;;10.88;7.87;;;;;;;15.90;76.78;100359.58;1694779;83;21284;-84
2021/09/25 00:21:25;;;;;;;13.65;11.18;;;;;;;15.90;76.71;100364.89;1694721;83;21073;-85
2021/09/25 00:23:52;;;;;;;14.47;6.62;;;;;;;15.88;76.68;100369.31;1725815;80;21061;-85
2021/09/25 00:26:20;;;;;;;10.68;5.92;;;;;;;15.84;76.68;100363.55;1725420;83;21488;-84
2021/09/25 00:28:51;;;;;;;9.58;5.42;;;;;;;15.83;76.69;100364.45;1725656;83;21029;-84
2021/09/25 00:31:17;;;;;;;7.92;5.20;;;;;;;15.82;76.70;100362.67;1725564;83;21045;-84
2021/09/25 00:33:43;;;;;;;9.63;5.35;;;;;;;15.80;76.66;100364.00;1725837;80;21054;-84
2021/09/25 00:36:10;;;;;;;10.32;5.30;;;;;;;15.79;76.65;100366.23;1725550;82;21017;-84
2021/09/25 00:38:37;;;;;;;7.20;4.60;;;;;;;15.77;76.67;100360.05;1725723;80;22590;-84
2021/09/25 00:41:08;;;;;;;8.23;4.97;;;;;;;15.76;76.69;100362.70;1725578;80;21555;-84
2021/09/25 00:43:34;;;;;;;6.97;4.17;;;;;;;15.77;76.74;100362.70;1725221;83;21093;-84
2021/09/25 00:46:02;;;;;;;6.17;3.85;;;;;;;15.80;76.82;100352.51;1725643;83;21073;-84
2021/09/25 00:48:29;;;;;;;8.63;5.45;;;;;;;15.82;76.81;100361.34;1725754;80;21073;-85
2021/09/25 00:50:59;;;;;;;7.47;3.83;;;;;;;15.83;76.80;100367.98;1725844;81;21721;-85
2021/09/25 00:53:29;;;;;;;5.55;3.67;;;;;;;15.85;76.79;100355.59;1725347;83;21049;-84
2021/09/25 00:55:58;;;;;;;4.50;3.05;;;;;;;15.88;76.85;100364.01;1725389;83;21828;-84
2021/09/25 00:58:23;;;;;;;7.08;3.30;;;;;;;15.91;76.87;100357.34;1725379;80;21432;-84
2021/09/25 01:00:52;;;;;;;6.10;4.00;;;;;;;15.96;76.90;100363.98;1724492;83;21042;-84
2021/09/25 01:03:19;;;;;;;6.95;2.90;;;;;;;16.01;76.90;100366.16;1705441;84;22595;-84
2021/09/25 01:05:46;;;;;;;7.37;2.83;;;;;;;16.02;76.87;100362.17;1705379;84;21038;-84
2021/09/25 01:08:13;;;;;;;5.72;3.00;;;;;;;16.05;76.88;100358.64;1705374;84;21004;-84
2021/09/25 01:10:44;;;;;;;6.90;2.90;;;;;;;16.07;76.85;100359.06;1705185;82;21511;-84
2021/09/25 01:13:11;;;;;;;6.22;4.47;;;;;;;16.09;76.86;100355.95;1660757;84;21128;-84
2021/09/25 01:15:37;;;;;;;2.80;2.20;;;;;;;16.05;76.85;100345.37;1705441;84;22671;-84
2021/09/25 01:18:04;;;;;;;3.47;2.72;;;;;;;16.13;76.83;100354.17;1705540;83;21579;-84
2021/09/25 01:20:31;;;;;;;5.55;2.83;;;;;;;16.13;76.81;100360.81;1705427;83;21098;-84
2021/09/25 01:22:58;;;;;;;2.52;2.02;;;;;;;16.12;76.83;100357.28;1705513;84;21042;-84
2021/09/25 01:25:26;;;;;;;3.60;2.45;;;;;;;16.13;76.89;100364.80;1683182;84;21125;-84
2021/09/25 01:27:55;;;;;;;4.22;2.90;;;;;;;16.14;76.90;100355.92;1683317;84;21871;-84
2021/09/25 01:30:22;;;;;;;4.03;2.40;;;;;;;16.15;76.97;100360.81;1705400;82;22123;-84
2021/09/25 01:32:51;;;;;;;3.65;1.80;;;;;;;16.16;76.99;100359.91;1705658;82;21145;-84
2021/09/25 01:35:20;;;;;;;3.35;1.85;;;;;;;16.16;77.01;100358.58;1705670;84;21062;-84
2021/09/25 01:37:47;;;;;;;4.25;2.20;;;;;;;16.19;77.03;100359.91;1705404;83;21066;-84
2021/09/25 01:40:15;;;;;;;4.17;1.92;;;;;;;16.19;77.04;100360.78;1705579;83;21769;-84
2021/09/25 01:42:41;;;;;;;4.75;2.00;;;;;;;16.20;77.07;100368.29;1705475;84;21227;-84
2021/09/25 01:45:10;;;;;;;2.10;1.90;;;;;;;16.19;77.11;100370.52;1705565;83;21038;-84
2021/09/25 01:47:39;;;;;;;2.83;2.02;;;;;;;16.18;77.17;100364.34;1705553;84;21078;-84
2021/09/25 01:50:10;;;;;;;5.92;2.98;;;;;;;16.17;77.16;100361.69;1705658;83;21054;-83
2021/09/25 01:52:38;;;;;;;4.17;1.98;;;;;;;16.18;77.25;100363.02;1683324;84;21055;-84
2021/09/25 01:55:11;;;;;;;1.95;1.57;;;;;;;16.20;77.33;100369.62;1704952;83;21030;-84
2021/09/25 01:57:37;;;;;;;4.62;1.80;;;;;;;16.21;77.41;100370.07;1705250;82;21200;-83
2021/09/25 02:00:07;;;;;;;4.10;1.50;;;;;;;16.21;77.42;100372.73;1705581;82;21070;-84
2021/09/25 02:02:34;;;;;;;2.27;1.60;;;;;;;16.22;77.43;100375.84;1718020;80;21563;-84
2021/09/25 02:05:01;;;;;;;1.95;1.55;;;;;;;16.21;77.45;100372.73;1725735;80;22500;-84
2021/09/25 02:07:27;;;;;;;1.75;1.52;;;;;;;16.19;77.49;100372.73;1725554;80;21022;-84
2021/09/25 02:09:56;;;;;;;1.52;1.37;;;;;;;16.20;77.53;100363.89;1725553;80;21563;-84
2021/09/25 02:12:23;;;;;;;3.02;1.50;;;;;;;16.22;77.55;100365.22;1725568;80;20991;-86
2021/09/25 02:14:50;;;;;;;2.92;1.50;;;;;;;16.20;77.60;100362.55;1725614;81;21129;-87
2021/09/25 02:17:21;;;;;;;2.47;1.60;;;;;;;16.23;77.64;100369.62;1724728;83;21066;-86
2021/09/25 02:19:47;;;;;;;1.98;1.80;;;;;;;16.24;77.69;100365.63;1725143;81;21124;-85
2021/09/25 02:22:17;;;;;;;3.15;1.75;;;;;;;16.25;77.73;100367.83;1725257;80;21584;-85
2021/09/25 02:24:43;;;;;;;3.12;1.65;;;;;;;16.25;77.73;100372.69;1725266;83;21120;-85
2021/09/25 02:27:15;;;;;;;2.45;2.00;;;;;;;16.23;77.80;100374.47;1694524;83;21053;-85
2021/09/25 02:29:43;;;;;;;2.55;1.62;;;;;;;16.24;77.86;100378.04;1724967;81;21790;-85
2021/09/25 02:32:09;;;;;;;2.60;1.90;;;;;;;16.23;77.91;100373.59;1725119;83;21186;-85
2021/09/25 02:34:38;;;;;;;1.98;1.77;;;;;;;16.24;78.03;100373.59;1725517;83;21066;-86
2021/09/25 02:37:05;;;;;;;1.77;1.60;;;;;;;16.24;78.07;100379.36;1695868;83;22339;-86
2021/09/25 02:39:32;;;;;;;2.17;1.60;;;;;;;16.24;78.12;100378.04;1725862;83;21069;-85
2021/09/25 02:41:58;;;;;;;2.83;2.62;;;;;;;16.25;78.21;100382.44;1725714;82;22658;-84
2021/09/25 02:44:25;;;;;;;2.80;2.40;;;;;;;16.26;78.23;100386.88;1725496;83;21590;-86
2021/09/25 02:46:52;;;;;;;2.65;2.17;;;;;;;16.27;78.25;100388.20;1694622;83;21263;-83
2021/09/25 02:49:20;;;;;;;5.03;3.00;;;;;;;16.27;78.29;100380.23;1725801;81;21077;-84
2021/09/25 02:51:48;;;;;;;3.02;2.62;;;;;;;16.29;78.29;100385.09;1725718;81;21629;-84
2021/09/25 02:54:15;;;;;;;5.25;2.65;;;;;;;16.31;78.29;100385.97;1725873;81;22617;-85
2021/09/25 02:56:44;;;;;;;3.33;2.50;;;;;;;16.32;78.28;100377.09;1725153;80;21045;-83
2021/09/25 02:59:10;;;;;;;4.80;2.90;;;;;;;16.35;78.31;100384.61;1725730;80;21006;-85
2021/09/25 03:01:43;;;;;;;4.78;2.92;;;;;;;16.36;78.33;100387.27;1722551;83;21093;-87
2021/09/25 03:04:10;;;;;;;3.25;2.58;;;;;;;16.37;78.35;100391.70;1705659;83;21058;-85
2021/09/25 03:06:37;;;;;;;5.25;2.65;;;;;;;16.39;78.34;100385.93;1705701;84;21141;-85
2021/09/25 03:09:04;;;;;;;3.75;2.52;;;;;;;16.40;78.34;100391.66;1705623;82;21049;-85
2021/09/25 03:11:31;;;;;;;3.00;2.45;;;;;;;16.40;78.31;100386.35;1705548;84;21046;-84
2021/09/25 03:13:58;;;;;;;2.33;2.02;;;;;;;16.41;78.28;100387.26;1716964;83;21097;-83
2021/09/25 03:16:25;;;;;;;3.30;2.33;;;;;;;16.41;78.23;100376.63;1717836;81;21027;-82
2021/09/25 03:18:55;;;;;;;2.50;2.10;;;;;;;16.42;78.21;100387.67;1717765;81;22466;-82
2021/09/25 03:21:20;;;;;;;5.03;2.22;;;;;;;16.44;78.20;100388.55;1717325;82;21087;-82
2021/09/25 03:23:47;;;;;;;3.30;2.30;;;;;;;16.43;78.23;100385.02;1717874;83;21081;-83
2021/09/25 03:26:14;;;;;;;3.15;2.35;;;;;;;16.44;78.26;100384.14;1717971;81;21062;-83
2021/09/25 03:28:44;;;;;;;2.37;2.15;;;;;;;16.44;78.37;100397.84;1718282;82;21129;-84
2021/09/25 03:31:09;;;;;;;4.72;2.00;;;;;;;16.43;78.48;100402.73;1705822;83;21879;-84
2021/09/25 03:33:36;;;;;;;2.02;1.80;;;;;;;16.40;78.60;100403.61;1705721;82;21129;-83
2021/09/25 03:36:04;;;;;;;2.10;1.70;;;;;;;16.38;78.70;100408.51;1718124;81;21589;-84
2021/09/25 03:38:31;;;;;;;2.42;2.15;;;;;;;16.35;78.76;100401.45;1717893;82;21059;-83
2021/09/25 03:41:00;;;;;;;2.40;2.20;;;;;;;16.33;78.88;100415.19;1718067;81;21019;-83
2021/09/25 03:43:29;;;;;;;3.70;2.20;;;;;;;16.30;78.96;100421.83;1717957;81;21848;-82
2021/09/25 03:46:00;;;;;;;2.17;1.67;;;;;;;16.28;78.86;100422.28;1705797;83;21493;-85
2021/09/25 03:48:26;;;;;;;3.67;1.95;;;;;;;16.24;78.72;100421.41;1718116;81;21075;-84
2021/09/25 03:50:53;;;;;;;2.42;1.90;;;;;;;16.21;78.54;100424.05;1718334;81;21104;-85
2021/09/25 03:53:21;;;;;;;3.42;1.77;;;;;;;16.18;78.49;100419.20;1718265;81;21639;-84
2021/09/25 03:55:48;;;;;;;2.98;2.00;;;;;;;16.14;78.28;100418.32;1718050;81;22618;-83
2021/09/25 03:58:21;;;;;;;3.75;1.90;;;;;;;16.08;78.08;100424.98;1717752;82;21117;-84
2021/09/25 04:00:51;;;;;;;3.17;1.80;;;;;;;15.98;77.90;100417.49;1705154;82;21061;-84
2021/09/25 04:03:16;;;;;;;3.02;2.30;;;;;;;15.87;77.85;100415.31;1719336;81;21628;-83
2021/09/25 04:05:43;;;;;;;5.10;2.50;;;;;;;15.77;77.87;100422.86;1716085;82;21092;-87
2021/09/25 04:08:13;;;;;;;2.98;1.98;;;;;;;15.73;78.03;100414.89;1718508;81;21794;-86
2021/09/25 04:10:42;;;;;;;5.05;2.35;;;;;;;15.74;78.20;100419.75;1630579;85;21081;-84
2021/09/25 04:13:09;;;;;;;8.43;2.80;;;;;;;15.75;78.11;100405.61;1686102;85;21137;-84
2021/09/25 04:15:36;;;;;;;6.92;2.90;;;;;;;15.75;78.11;100409.59;1685798;83;21023;-84
2021/09/25 04:18:05;;;;;;;6.58;2.60;;;;;;;15.78;78.14;100403.38;1685950;85;21053;-84
2021/09/25 04:20:31;;;;;;;4.75;3.10;;;;;;;15.77;77.95;100405.61;1685993;82;21776;-84
2021/09/25 04:22:58;;;;;;;4.00;2.87;;;;;;;15.73;77.94;100407.35;1681623;83;21296;-82
2021/09/25 04:25:30;;;;;;;4.15;2.40;;;;;;;15.72;78.06;100407.77;1674629;82;21031;-82
2021/09/25 04:27:55;;;;;;;5.47;3.00;;;;;;;15.76;78.11;100395.42;1685243;84;21065;-80
2021/09/25 04:30:24;;;;;;;5.00;2.52;;;;;;;15.80;78.07;100401.61;1685709;82;21145;-85
2021/09/25 04:32:52;;;;;;;6.72;3.22;;;;;;;15.83;78.04;100402.94;1668544;84;21773;-90
2021/09/25 04:35:22;;;;;;;5.35;2.52;;;;;;;15.88;77.94;100416.64;1666363;86;21063;-87
2021/09/25 04:37:52;;;;;;;4.45;2.70;;;;;;;15.91;77.86;100414.41;1666782;86;21077;-84
2021/09/25 04:40:18;;;;;;;6.62;3.33;;;;;;;15.93;77.77;100417.52;1665819;86;21647;-84
2021/09/25 04:42:49;;;;;;;4.97;2.50;;;;;;;15.96;77.58;100394.51;1665709;86;21142;-83
2021/09/25 04:45:16;;;;;;;6.33;2.80;;;;;;;15.98;77.43;100409.53;1666036;86;21792;-82
2021/09/25 04:47:44;;;;;;;5.58;3.02;;;;;;;15.92;77.18;100405.58;1665862;86;21079;-83
2021/09/25 04:50:16;;;;;;;6.70;2.80;;;;;;;15.84;76.90;100412.23;1665933;85;21126;-82
2021/09/25 04:52:45;;;;;;;4.75;2.60;;;;;;;15.78;76.80;100417.53;1665133;85;21108;-82
2021/09/25 04:55:10;;;;;;;5.47;2.55;;;;;;;15.70;76.70;100425.47;1681927;83;21126;-82
2021/09/25 04:57:37;;;;;;;4.10;2.60;;;;;;;15.65;76.67;100421.92;1684206;84;21742;-82
2021/09/25 05:00:05;;;;;;;4.05;2.47;;;;;;;15.59;76.72;100419.73;1686359;84;21090;-82
2021/09/25 05:02:38;;;;;;;5.58;2.60;;;;;;;15.55;76.79;100418.41;1677958;83;21122;-82
2021/09/25 05:05:07;;;;;;;5.05;2.40;;;;;;;15.57;76.88;100421.52;1640582;85;21142;-83
2021/09/25 05:07:36;;;;;;;6.53;2.70;;;;;;;15.57;76.84;100420.19;1667146;85;21044;-83
2021/09/25 05:10:06;;;;;;;4.15;2.72;;;;;;;15.61;77.02;100426.80;1698241;84;21781;-83
2021/09/25 05:12:35;;;;;;;5.70;2.58;;;;;;;15.71;77.07;100431.23;1697486;84;21148;-83
2021/09/25 05:15:01;;;;;;;5.35;2.30;;;;;;;15.80;77.02;100429.47;1660671;85;21082;-83
2021/09/25 05:17:30;;;;;;;4.40;2.80;;;;;;;15.86;76.85;100437.00;1680482;84;21056;-83
2021/09/25 05:19:57;;;;;;;8.75;2.65;;;;;;;15.88;76.73;100432.56;1654106;86;21142;-83
2021/09/25 05:22:25;;;;;;;8.38;2.80;;;;;;;15.93;76.72;100440.50;1653166;85;21107;-83
2021/09/25 05:24:54;;;;;;;5.80;2.62;;;;;;;16.04;76.84;100448.45;1654373;85;21071;-83
2021/09/25 05:27:21;;;;;;;6.45;2.50;;;;;;;16.17;76.79;100436.03;1681320;84;21098;-83
2021/09/25 05:29:47;;;;;;;5.25;2.70;;;;;;;16.28;76.67;100436.43;1681922;83;21097;-83
2021/09/25 05:32:17;;;;;;;8.28;2.83;;;;;;;16.36;76.39;100428.43;1681151;85;21126;-83
2021/09/25 05:34:46;;;;;;;5.20;2.52;;;;;;;16.47;76.37;100435.03;1673789;83;21106;-83
2021/09/25 05:37:14;;;;;;;7.33;2.70;;;;;;;16.59;76.18;100445.62;1668580;84;21150;-83
2021/09/25 05:39:41;;;;;;;5.58;2.42;;;;;;;16.67;75.98;100442.93;1731239;82;21051;-83
2021/09/25 05:42:08;;;;;;;6.37;2.55;;;;;;;16.73;75.83;100457.95;1736863;82;21074;-83
2021/09/25 05:44:34;;;;;;;5.37;2.40;;;;;;;16.78;75.67;100461.45;1736824;82;21062;-83
2021/09/25 05:47:01;;;;;;;4.60;2.70;;;;;;;16.80;75.57;100458.34;1737216;82;21735;-83
2021/09/25 05:49:28;;;;;;;5.20;2.27;;;;;;;16.84;75.57;100464.14;1733553;82;21055;-83
2021/09/25 05:51:55;;;;;;;3.92;2.22;;;;;;;16.92;75.51;100464.09;1729311;82;21114;-83
2021/09/25 05:54:25;;;;;;;6.50;2.55;;;;;;;16.99;75.40;100457.40;1729301;82;21067;-83
2021/09/25 05:56:51;;;;;;;3.85;2.50;;;;;;;17.06;75.39;100467.53;1729066;82;21086;-83
2021/09/25 05:59:18;;;;;;;4.25;2.30;;;;;;;17.15;75.23;100471.92;1728998;82;21952;-84
2021/09/25 06:01:44;;;;;;;5.83;2.40;;;;;;;17.23;75.03;100468.75;1729253;82;21058;-83
2021/09/25 06:04:11;;;;;;;3.45;2.12;;;;;;;17.30;74.89;100473.14;1730977;82;21063;-83
2021/09/25 06:06:38;;;;;;;6.95;2.17;;;;;;;17.39;74.83;100482.39;1731471;82;21035;-83
2021/09/25 06:09:04;;;;;;;4.50;2.33;;;;;;;17.49;74.67;100486.77;1731986;82;21008;-83
2021/09/25 06:11:33;;;;;;;4.50;2.05;;;;;;;17.60;74.60;100485.78;1731839;82;21742;-83
2021/09/25 06:14:00;;;;;;;6.72;2.30;;;;;;;17.69;74.51;100482.59;1731942;82;21091;-83
2021/09/25 06:16:26;;;;;;;6.92;2.52;;;;;;;17.81;74.31;100494.02;1732044;82;21643;-83
2021/09/25 06:18:53;;;;;;;5.30;2.58;;;;;;;17.96;74.23;100495.28;1732175;82;21529;-83
2021/09/25 06:21:20;;;;;;;4.75;2.02;;;;;;;18.05;73.88;100492.95;1731775;82;21106;-83
2021/09/25 06:23:47;;;;;;;4.72;2.35;;;;;;;18.21;73.84;100501.69;1732060;82;21626;-83
2021/09/25 06:26:14;;;;;;;2.90;2.20;;;;;;;18.41;73.70;100496.12;1732028;82;21058;-83
2021/09/25 06:28:41;;;;;;;4.72;2.75;;;;;;;18.56;73.29;100507.06;1732146;82;21082;-83
2021/09/25 06:31:08;;;;;;;6.08;2.62;;;;;;;18.68;72.92;100512.72;1731980;82;21074;-83
2021/09/25 06:33:35;;;;;;;4.85;2.00;;;;;;;18.74;72.57;100512.63;1732376;82;21133;-83
2021/09/25 06:36:02;;;;;;;3.35;2.10;;;;;;;18.77;72.18;100512.14;1732242;82;21764;-83
2021/09/25 06:38:29;;;;;;;6.25;2.22;;;;;;;18.79;72.19;100513.00;1732246;82;21545;-84
2021/09/25 06:40:56;;;;;;;3.95;2.10;;;;;;;18.88;71.97;100513.81;1732390;82;21012;-84
2021/09/25 06:43:23;;;;;;;7.08;2.58;;;;;;;18.84;71.67;100520.54;1732337;82;21063;-83
2021/09/25 06:45:50;;;;;;;6.03;2.55;;;;;;;18.81;71.68;100523.69;1732466;82;21070;-83
2021/09/25 06:48:16;;;;;;;6.22;1.82;;;;;;;18.80;71.55;100524.13;1732340;82;21768;-84
2021/09/25 06:50:43;;;;;;;6.37;2.12;;;;;;;18.80;71.45;100534.79;1704165;82;21066;-83
2021/09/25 06:53:10;;;;;;;5.10;2.15;;;;;;;18.78;71.37;100533.89;1703990;84;21055;-83
2021/09/25 06:55:37;;;;;;;4.30;2.20;;;;;;;18.81;71.38;100532.56;1703770;84;21059;-83
2021/09/25 06:58:05;;;;;;;4.53;2.25;;;;;;;18.88;71.37;100531.15;1703792;83;21697;-84
2021/09/25 07:00:34;;;;;;;8.08;2.45;;;;;;;18.98;71.29;100524.81;1703587;83;21789;-84
2021/09/25 07:03:01;;;;;;;5.12;2.27;;;;;;;19.04;70.96;100530.92;1702842;84;21099;-83
2021/09/25 07:05:28;;;;;;;4.03;2.12;;;;;;;19.15;70.86;100537.46;1697257;84;21068;-84
2021/09/25 07:07:55;;;;;;;6.62;2.90;;;;;;;19.21;70.73;100534.70;1697035;84;21424;-84
2021/09/25 07:10:22;;;;;;;6.12;3.20;;;;;;;19.33;70.47;100544.34;1697263;84;21096;-83
2021/09/25 07:12:49;;;;;;;5.45;2.35;;;;;;;19.34;70.16;100542.55;1697315;83;21750;-83
2021/09/25 07:15:15;;;;;;;3.80;2.27;;;;;;;19.37;70.22;100544.72;1697146;84;21063;-83
2021/09/25 07:17:42;;;;;;;4.30;2.10;;;;;;;19.52;70.15;100552.05;1696897;84;21107;-83
2021/09/25 07:20:12;;;;;;;6.75;2.83;;;;;;;19.62;69.78;100559.03;1697006;84;21075;-83
2021/09/25 07:22:39;;;;;;;3.17;2.50;;;;;;;19.65;69.52;100563.42;1697142;84;21051;-83
2021/09/25 07:25:07;;;;;;;6.33;2.12;;;;;;;19.60;69.21;100563.52;1713789;81;21742;-83
2021/09/25 07:27:34;;;;;;;4.62;2.35;;;;;;;19.58;69.39;100568.87;1717789;81;21657;-84
2021/09/25 07:30:01;;;;;;;4.75;2.60;;;;;;;19.55;69.20;100567.56;1717937;82;21114;-84
2021/09/25 07:32:27;;;;;;;4.92;2.40;;;;;;;19.50;69.14;100571.21;1716725;81;21078;-84
2021/09/25 07:34:57;;;;;;;6.28;2.80;;;;;;;19.40;69.12;100568.67;1716996;81;21059;-83
2021/09/25 07:37:23;;;;;;;5.58;2.72;;;;;;;19.30;69.17;100568.85;1717072;81;21931;-84
2021/09/25 07:39:51;;;;;;;6.85;3.25;;;;;;;19.22;69.16;100581.84;1717298;81;21141;-83
2021/09/25 07:42:20;;;;;;;6.17;2.58;;;;;;;19.25;69.28;100582.23;1717218;82;21086;-83
2021/09/25 07:44:48;;;;;;;5.60;2.67;;;;;;;19.27;69.12;100596.90;1717448;82;21593;-84
2021/09/25 07:47:16;;;;;;;5.92;2.85;;;;;;;19.13;69.06;100601.09;1717895;81;21591;-83
2021/09/25 07:49:45;;;;;;;6.30;2.77;;;;;;;18.99;69.11;100590.57;1705259;83;21584;-84
2021/09/25 07:52:11;;;;;;;6.62;2.67;;;;;;;18.91;69.18;100589.80;1718015;81;21061;-84
2021/09/25 07:54:38;;;;;;;6.37;2.70;;;;;;;18.79;69.21;100602.80;1717916;82;21074;-83
2021/09/25 07:57:05;;;;;;;5.28;2.27;;;;;;;18.63;69.37;100610.94;1717840;83;21604;-83
2021/09/25 07:59:32;;;;;;;5.53;2.65;;;;;;;18.58;69.63;100610.55;1717904;81;21048;-84
2021/09/25 08:02:00;;;;;;;5.95;2.67;;;;;;;18.55;69.79;100615.93;1717982;82;22371;-83
2021/09/25 08:04:30;;;;;;;4.87;2.25;;;;;;;18.50;69.79;100619.95;1729629;82;21119;-83
2021/09/25 08:06:55;;;;;;;7.08;2.92;;;;;;;18.46;69.99;100613.77;1737565;81;21575;-83
2021/09/25 08:09:23;;;;;;;4.20;2.70;;;;;;;18.43;69.98;100620.91;1741648;82;21678;-83
2021/09/25 08:11:51;;;;;;;7.78;2.83;;;;;;;18.37;70.12;100628.97;1742811;82;21082;-84
2021/09/25 08:14:18;;;;;;;5.80;2.70;;;;;;;18.30;70.01;100630.83;1711311;82;21839;-84
2021/09/25 08:16:45;;;;;;;4.53;2.52;;;;;;;18.22;70.21;100631.31;1742596;82;21322;-84
2021/09/25 08:19:11;;;;;;;5.90;2.95;;;;;;;18.24;70.41;100633.09;1742759;82;21082;-83
2021/09/25 08:21:38;;;;;;;6.95;2.52;;;;;;;18.34;70.56;100636.55;1742822;82;21018;-83
2021/09/25 08:24:05;;;;;;;6.72;2.33;;;;;;;18.50;70.52;100631.95;1742888;82;21104;-83
2021/09/25 08:26:32;;;;;;;5.97;2.87;;;;;;;18.71;70.55;100638.84;1742660;81;21815;-84
2021/09/25 08:28:59;;;;;;;7.25;2.70;;;;;;;18.93;70.35;100629.33;1742292;82;21694;-84
2021/09/25 08:31:28;;;;;;;7.55;3.25;;;;;;;19.10;70.17;100628.67;1742674;82;21654;-83
2021/09/25 08:33:54;;;;;;;6.55;3.08;;;;;;;19.26;69.94;100638.72;1742488;82;21126;-83
2021/09/25 08:36:21;;;;;;;5.65;2.47;;;;;;;19.38;69.62;100639.01;1742453;82;21066;-84
2021/09/25 08:38:47;;;;;;;8.15;2.62;;;;;;;19.42;69.23;100646.06;1742516;82;22420;-84
2021/09/25 08:41:15;;;;;;;6.72;2.30;;;;;;;19.34;68.95;100654.64;1742537;82;21137;-84
2021/09/25 08:43:44;;;;;;;5.33;3.17;;;;;;;19.23;68.64;100646.75;1711369;82;21063;-84
2021/09/25 08:46:11;;;;;;;8.30;2.40;;;;;;;19.11;68.79;100651.80;1742386;81;21078;-84
2021/09/25 08:48:38;;;;;;;6.70;3.00;;;;;;;19.07;68.83;100643.83;1742393;82;21162;-84
2021/09/25 08:51:05;;;;;;;6.95;3.10;;;;;;;19.19;69.04;100645.91;1742531;82;21718;-84
2021/09/25 08:53:32;;;;;;;4.12;2.42;;;;;;;19.28;68.74;100649.38;1742378;82;21030;-83
2021/09/25 08:55:59;;;;;;;7.47;3.00;;;;;;;19.37;68.83;100646.14;1742519;82;21171;-84
2021/09/25 08:58:26;;;;;;;6.12;2.47;;;;;;;19.50;68.54;100643.29;1742440;82;21082;-83
2021/09/25 09:00:55;;;;;;;6.22;2.33;;;;;;;19.58;68.18;100659.65;1703580;82;21655;-84
2021/09/25 09:03:40;;;;;;;4.70;2.85;;;;;;;19.58;68.00;100658.31;1699529;83;21805;-83
2021/09/25 09:06:25;;;;;;;7.00;4.30;;;;;;;19.60;67.68;100659.63;1717703;83;21140;-84
2021/09/25 09:08:54;;;;;;;8.60;3.40;;;;;;;19.70;67.55;100664.39;1723206;83;21686;-82
2021/09/25 09:11:23;;;;;;;8.13;3.47;;;;;;;19.81;67.52;100669.16;1723134;83;21261;-82
2021/09/25 09:14:00;;;;;;;7.53;3.72;;;;;;;19.99;67.42;100660.00;1723186;83;21109;-82
2021/09/25 09:16:28;;;;;;;11.40;7.08;;;;;;;20.18;67.21;100664.60;1723390;83;21780;-82
2021/09/25 09:18:55;;;;;;;8.93;4.90;;;;;;;20.24;66.53;100672.97;1723281;81;21094;-83
2021/09/25 09:21:28;;;;;;;5.15;3.98;;;;;;;20.20;65.90;100674.34;1723197;83;21198;-82
2021/09/25 09:24:02;;;;;;;7.83;4.12;;;;;;;20.12;65.58;100664.67;1723189;81;21117;-82
2021/09/25 09:26:34;;;;;;;7.60;4.58;;;;;;;19.97;65.23;100664.03;1722927;83;21785;-83
2021/09/25 09:29:06;;;;;;;7.10;3.50;;;;;;;19.82;64.99;100664.27;1723675;83;21736;-84
2021/09/25 09:31:33;;;;;;;9.78;3.72;;;;;;;19.68;64.86;100668.41;1723359;83;21612;-84
2021/09/25 09:34:06;;;;;;;6.03;5.00;;;;;;;19.65;65.06;100672.91;1723385;82;21082;-83
2021/09/25 09:36:39;;;;;;;7.15;4.47;;;;;;;19.69;64.96;100676.87;1722851;83;21062;-83
2021/09/25 09:39:20;;;;;;;6.53;4.30;;;;;;;19.79;64.57;100671.84;1722955;83;21584;-83
2021/09/25 09:41:55;;;;;;;6.67;3.35;;;;;;;19.96;64.62;100686.75;1723031;82;21771;-83
2021/09/25 09:44:29;;;;;;;8.50;4.20;;;;;;;20.11;64.45;100686.98;1723180;83;21136;-84
2021/09/25 09:47:02;;;;;;;8.00;3.65;;;;;;;20.28;64.19;100689.38;1723043;82;21125;-84
2021/09/25 09:49:32;;;;;;;3.83;2.50;;;;;;;20.33;63.77;100691.54;1723362;83;21082;-83
2021/09/25 09:52:05;;;;;;;7.33;3.85;;;;;;;20.41;63.62;100691.41;1722942;81;21098;-83
2021/09/25 09:54:35;;;;;;;6.90;2.30;;;;;;;20.35;63.24;100698.61;1700320;83;21771;-83
2021/09/25 09:57:10;;;;;;;6.33;2.50;;;;;;;20.32;63.39;100695.11;1722420;82;21107;-83
2021/09/25 09:59:38;;;;;;;5.95;2.98;;;;;;;20.51;63.56;100701.90;1722505;83;21087;-84
2021/09/25 10:02:05;;;;;;;6.90;3.60;;;;;;;20.75;63.45;100716.69;1722307;82;21041;-84
2021/09/25 10:04:32;;;;;;;7.25;3.20;;;;;;;20.97;63.09;100709.16;1722405;82;21068;-85
2021/09/25 10:06:59;;;;;;;6.95;2.60;;;;;;;21.23;62.67;100724.28;1721751;81;21836;-84
2021/09/25 10:09:29;;;;;;;7.90;3.22;;;;;;;21.23;62.67;100724.28;1721532;81;21065;-83
2021/09/25 10:12:04;;;;;;;6.15;2.40;;;;;;;21.23;62.22;100730.97;1699102;83;21121;-84
2021/09/25 10:14:33;;;;;;;5.03;2.65;;;;;;;21.14;61.96;100723.55;1721638;83;21081;-83
2021/09/25 10:17:03;;;;;;;4.72;2.08;;;;;;;21.35;62.08;100736.97;1721779;83;21458;-84
2021/09/25 10:19:31;;;;;;;6.15;2.95;;;;;;;21.29;61.59;100711.67;1722119;83;22627;-84
2021/09/25 10:22:14;;;;;;;3.95;2.25;;;;;;;21.33;61.14;100744.16;1699602;83;21079;-84
2021/09/25 10:24:48;;;;;;;5.53;2.47;;;;;;;21.25;61.20;100757.29;1721757;83;21034;-83
2021/09/25 10:27:15;;;;;;;5.58;2.40;;;;;;;21.27;61.30;100749.64;1722368;83;21063;-83
2021/09/25 10:29:47;;;;;;;6.22;2.50;;;;;;;21.39;61.04;100766.37;1722155;83;21054;-83
2021/09/25 10:32:25;;;;;;;5.03;2.25;;;;;;;21.35;59.50;100734.77;1722286;83;21772;-83
2021/09/25 10:35:15;;;;;;;4.40;1.90;;;;;;;21.35;59.50;100734.77;1722177;83;22171;-82
2021/09/25 10:38:02;;;;;;;7.65;2.08;;;;;;;21.49;59.25;100759.52;1722371;83;21561;-83
2021/09/25 10:40:33;;;;;;;5.35;2.02;;;;;;;21.42;58.56;100766.33;1721902;81;21557;-84
2021/09/25 10:43:17;;;;;;;7.85;1.95;;;;;;;21.29;57.92;100772.37;1721549;83;21128;-83
2021/09/25 10:45:43;;;;;;;8.38;2.27;;;;;;;21.13;57.82;100768.66;1722149;83;21773;-83
2021/09/25 10:48:18;;;;;;;6.08;2.42;;;;;;;21.13;57.82;100768.66;1722298;83;21131;-84
2021/09/25 10:51:08;;;;;;;6.15;1.80;;;;;;;21.19;57.74;100758.72;1717907;83;21089;-83
2021/09/25 10:53:39;;;;;;;5.35;2.00;;;;;;;21.29;58.04;100753.17;1722276;83;21584;-83
2021/09/25 10:56:18;;;;;;;7.72;1.95;;;;;;;21.49;57.91;100758.61;1721459;81;21071;-83
2021/09/25 10:59:03;;;;;;;4.20;1.87;;;;;;;21.52;57.53;100762.58;1745741;81;21760;-83
2021/09/25 11:01:42;;;;;;;7.85;1.80;;;;;;;21.52;57.53;100762.58;1750585;80;21112;-84
2021/09/25 11:04:20;;;;;;;7.67;2.50;;;;;;;21.39;57.47;100750.31;1723131;81;21125;-84
2021/09/25 11:06:59;;;;;;;5.53;1.87;;;;;;;21.34;57.25;100767.79;1709817;83;22281;-85
2021/09/25 11:09:40;;;;;;;5.55;2.12;;;;;;;21.02;56.53;100817.47;1711852;83;21114;-84
2021/09/25 11:12:12;;;;;;;6.72;2.65;;;;;;;21.02;56.53;100817.47;1712133;83;22517;-83
2021/09/25 11:14:44;;;;;;;5.28;2.62;;;;;;;20.51;56.85;100792.81;1709062;83;21161;-84
2021/09/25 11:17:27;;;;;;;6.67;3.37;;;;;;;20.11;57.27;100797.41;1706739;84;21130;-82
2021/09/25 11:20:01;;;;;;;7.53;3.05;;;;;;;19.84;57.62;100806.69;1706791;84;21619;-84
2021/09/25 11:22:35;;;;;;;5.90;3.12;;;;;;;19.62;58.19;100808.23;1706441;83;21177;-83
2021/09/25 11:25:09;;;;;;;5.92;2.85;;;;;;;19.58;58.41;100802.95;1703186;84;21765;-84
2021/09/25 11:27:39;;;;;;;6.15;2.30;;;;;;;19.66;58.59;100806.87;1695451;83;21083;-84
2021/09/25 11:30:17;;;;;;;7.78;2.22;;;;;;;19.81;58.83;100806.25;1684040;84;21090;-84
2021/09/25 11:32:54;;;;;;;10.48;3.45;;;;;;;20.00;58.84;100807.36;1678499;84;21806;-84